Time;durP1;ratioP1;P1;durP2;ratioP2;P2;SDS_P1;SDS_P2;PMS_P1;PMS_P2;Temp;Humidity;BMP_temperature;BMP_pressure;BME280_temperature;BME280_humidity;BME280_pressure;Samples;Min_cycle;Max_cycle;Signal;HPM_P1;HPM_P2
2021/07/02 04:15:38;;;;;;;11.45;6.80;;;;;;;11.82;99.86;98906.19;5896592;23;20075;-72
2021/07/02 04:18:06;;;;;;;10.18;7.18;;;;;;;11.89;99.18;98914.69;4992865;28;20050;-72
2021/07/02 04:20:32;;;;;;;10.02;6.47;;;;;;;11.96;98.48;98908.50;4992905;28;20069;-73
2021/07/02 04:22:57;;;;;;;8.02;5.70;;;;;;;12.02;99.06;98912.69;4992965;28;20037;-72
2021/07/02 04:25:23;;;;;;;7.95;5.93;;;;;;;11.95;99.65;98922.38;4990789;28;20113;-72
2021/07/02 04:27:48;;;;;;;9.50;6.00;;;;;;;11.88;100.00;98920.78;4969226;28;20027;-72
2021/07/02 04:30:14;;;;;;;12.43;6.18;;;;;;;11.99;99.65;98926.63;4962181;28;20046;-71
2021/07/02 04:32:39;;;;;;;8.93;6.35;;;;;;;12.00;99.44;98914.47;4964381;28;20034;-72
2021/07/02 04:35:08;;;;;;;7.40;6.18;;;;;;;12.08;98.71;98923.78;4964713;28;20047;-72
2021/07/02 04:37:34;;;;;;;11.47;6.07;;;;;;;12.21;98.12;98923.53;4958764;28;20057;-72
2021/07/02 04:39:59;;;;;;;11.90;6.05;;;;;;;12.47;97.54;98925.53;4957646;28;20054;-71
2021/07/02 04:42:24;;;;;;;8.13;5.68;;;;;;;12.74;96.33;98918.84;4958817;28;20118;-72
2021/07/02 04:44:50;;;;;;;10.13;7.00;;;;;;;13.02;95.12;98922.47;4958710;28;20114;-72
2021/07/02 04:47:15;;;;;;;10.50;5.88;;;;;;;13.13;93.60;98917.81;4961658;28;20031;-71
2021/07/02 04:49:40;;;;;;;12.70;6.10;;;;;;;13.31;93.14;98915.69;4962113;28;20586;-72
2021/07/02 04:52:06;;;;;;;9.52;6.38;;;;;;;13.28;92.21;98910.53;4958226;28;20244;-71
2021/07/02 04:54:32;;;;;;;11.95;5.82;;;;;;;13.23;93.03;98915.00;4961959;28;20110;-72
2021/07/02 04:56:58;;;;;;;11.35;5.95;;;;;;;13.34;92.13;98915.56;4962737;28;20027;-71
2021/07/02 04:59:29;;;;;;;9.90;5.97;;;;;;;13.74;91.12;98925.75;4959675;28;20030;-71
2021/07/02 05:01:56;;;;;;;7.50;5.10;;;;;;;13.66;90.49;98922.50;4963036;28;20038;-71
2021/07/02 05:04:22;;;;;;;12.48;5.78;;;;;;;13.60;91.49;98920.94;4964364;28;20466;-70
2021/07/02 05:06:47;;;;;;;10.00;5.90;;;;;;;13.62;91.50;98919.13;4960062;28;20023;-71
2021/07/02 05:09:12;;;;;;;10.88;4.95;;;;;;;13.63;91.63;98923.47;4958279;28;20065;-70
2021/07/02 05:11:39;;;;;;;10.93;5.75;;;;;;;13.44;92.71;98924.88;4961205;28;20039;-70
2021/07/02 05:14:05;;;;;;;10.20;5.85;;;;;;;13.46;92.92;98930.03;4957937;28;20031;-71
2021/07/02 05:16:30;;;;;;;10.70;6.72;;;;;;;13.42;93.20;98923.19;4963830;28;20125;-71
2021/07/02 05:18:56;;;;;;;10.50;5.95;;;;;;;13.66;92.55;98926.88;4964222;28;20023;-70
2021/07/02 05:21:21;;;;;;;9.85;5.82;;;;;;;13.59;92.31;98932.25;4964320;28;20042;-71
2021/07/02 05:23:47;;;;;;;10.50;6.32;;;;;;;13.67;91.71;98925.97;4964251;28;20484;-71
2021/07/02 05:26:13;;;;;;;12.77;5.93;;;;;;;14.31;89.47;98924.06;4964000;28;20038;-70
2021/07/02 05:28:39;;;;;;;13.35;6.85;;;;;;;14.63;86.83;98923.94;4961353;28;20038;-73
2021/07/02 05:31:04;;;;;;;7.45;5.72;;;;;;;14.61;87.82;98925.75;4964035;28;20026;-70
2021/07/02 05:33:30;;;;;;;8.98;5.75;;;;;;;14.85;86.71;98923.25;4964262;28;20074;-71
2021/07/02 05:35:55;;;;;;;8.40;5.32;;;;;;;15.17;86.06;98924.78;4962321;28;20062;-71
2021/07/02 05:38:21;;;;;;;7.18;5.55;;;;;;;15.10;85.75;98924.13;4960183;28;20113;-71
2021/07/02 05:40:46;;;;;;;9.55;6.28;;;;;;;14.86;86.71;98930.19;4961531;28;20483;-70
2021/07/02 05:43:11;;;;;;;9.45;5.47;;;;;;;15.05;85.99;98936.50;4961533;28;20140;-70
2021/07/02 05:45:37;;;;;;;9.43;5.47;;;;;;;15.16;85.75;98934.38;4962449;28;20089;-71
2021/07/02 05:48:03;;;;;;;11.98;6.20;;;;;;;15.02;85.71;98931.38;4949961;28;20486;-71
2021/07/02 05:50:30;;;;;;;8.68;5.75;;;;;;;15.19;85.32;98937.78;4964552;28;20038;-72
2021/07/02 05:52:56;;;;;;;14.38;6.18;;;;;;;15.07;84.71;98934.66;4967481;28;20030;-72
2021/07/02 05:55:25;;;;;;;11.40;6.18;;;;;;;15.05;83.46;98936.50;4965762;28;20415;-71
2021/07/02 05:57:50;;;;;;;9.38;5.75;;;;;;;15.15;82.19;98935.28;4960523;28;20065;-71
2021/07/02 06:00:17;;;;;;;12.35;5.63;;;;;;;15.49;82.97;98936.72;4967201;28;20117;-71
2021/07/02 06:02:43;;;;;;;13.60;6.25;;;;;;;15.74;81.48;98941.94;4967580;28;20031;-72
2021/07/02 06:05:08;;;;;;;9.65;5.97;;;;;;;15.86;80.61;98945.88;4966004;28;20034;-72
2021/07/02 06:07:51;;;;;;;9.30;5.40;;;;;;;16.09;79.93;98948.47;4966174;28;20034;-72
2021/07/02 06:10:19;;;;;;;11.65;6.25;;;;;;;15.91;78.96;98946.56;4967097;28;20037;-71
2021/07/02 06:12:45;;;;;;;10.57;5.00;;;;;;;16.11;79.13;98944.06;4965737;28;20307;-72
2021/07/02 06:15:13;;;;;;;6.82;5.55;;;;;;;15.85;79.33;98954.59;4966711;28;20713;-72
2021/07/02 06:17:39;;;;;;;8.77;5.90;;;;;;;16.05;80.99;98962.59;4961026;28;20443;-71
2021/07/02 06:20:05;;;;;;;9.05;5.75;;;;;;;16.22;78.77;98958.47;4967005;28;20054;-71
2021/07/02 06:22:31;;;;;;;6.82;6.03;;;;;;;16.49;78.48;98957.41;4966827;28;20487;-71
2021/07/02 06:24:56;;;;;;;14.48;5.38;;;;;;;17.07;75.39;98952.50;4963550;28;20046;-71
2021/07/02 06:27:21;;;;;;;7.75;5.38;;;;;;;17.35;73.63;98954.78;4965877;28;20391;-71
2021/07/02 06:29:47;;;;;;;9.88;5.72;;;;;;;17.32;74.15;98956.69;4966779;28;20065;-71
2021/07/02 06:32:12;;;;;;;11.23;5.90;;;;;;;17.30;73.81;98951.50;4966652;28;20037;-71
2021/07/02 06:34:38;;;;;;;7.00;4.88;;;;;;;17.43;74.20;98957.06;4966942;28;20034;-70
2021/07/02 06:37:03;;;;;;;9.50;5.47;;;;;;;17.58;74.67;98961.66;4966537;28;20085;-71
2021/07/02 06:39:29;;;;;;;8.20;5.50;;;;;;;17.02;73.91;98967.53;4960551;28;20081;-70
2021/07/02 06:41:54;;;;;;;15.68;5.75;;;;;;;17.67;72.33;98963.03;4966507;28;20030;-70
2021/07/02 06:44:19;;;;;;;7.90;5.40;;;;;;;17.82;69.27;98969.38;4966108;28;20022;-70
2021/07/02 06:46:44;;;;;;;9.50;5.15;;;;;;;18.14;67.16;98966.19;4962238;28;20061;-71
2021/07/02 06:49:10;;;;;;;7.43;5.05;;;;;;;18.45;65.83;98964.75;4959908;28;20027;-71
2021/07/02 06:51:37;;;;;;;8.98;5.35;;;;;;;19.30;64.15;98959.75;4960464;28;20400;-71
2021/07/02 06:54:03;;;;;;;8.07;5.30;;;;;;;19.41;63.65;98967.06;4961904;28;20178;-70
2021/07/02 06:56:30;;;;;;;6.32;4.97;;;;;;;20.85;57.15;98967.28;4962430;28;20042;-71
2021/07/02 06:58:56;;;;;;;6.97;5.18;;;;;;;21.98;56.09;98963.19;4962700;28;20030;-71
2021/07/02 07:01:22;;;;;;;6.07;4.88;;;;;;;22.76;52.40;98968.84;4966268;28;20065;-71
2021/07/02 07:03:47;;;;;;;7.22;4.50;;;;;;;21.00;55.89;98967.25;4959538;28;20106;-71
2021/07/02 07:06:13;;;;;;;9.38;4.80;;;;;;;22.57;52.08;98955.97;4962680;28;20039;-71
2021/07/02 07:08:38;;;;;;;10.82;4.78;;;;;;;25.20;44.89;98947.44;4965558;28;20041;-71
2021/07/02 07:11:04;;;;;;;10.98;4.60;;;;;;;24.97;44.90;98957.09;4966023;28;20033;-71
2021/07/02 07:13:29;;;;;;;9.40;4.45;;;;;;;26.89;42.02;98952.66;4965734;28;20026;-71
2021/07/02 07:15:55;;;;;;;10.02;4.13;;;;;;;27.57;39.73;98947.88;4963993;28;20039;-71
2021/07/02 07:18:20;;;;;;;5.57;4.75;;;;;;;26.87;40.27;98959.06;4959646;28;20037;-72
2021/07/02 07:20:45;;;;;;;7.78;4.55;;;;;;;25.79;41.69;98961.47;4959898;28;20046;-72
2021/07/02 07:23:11;;;;;;;7.18;3.85;;;;;;;27.70;38.88;98958.31;4959774;28;20636;-72
2021/07/02 07:25:36;;;;;;;5.00;4.10;;;;;;;28.28;37.26;98953.25;4961173;28;20027;-72
2021/07/02 07:28:02;;;;;;;7.65;4.47;;;;;;;28.28;37.34;98957.75;4964862;28;20027;-72
2021/07/02 07:30:27;;;;;;;6.05;4.07;;;;;;;28.62;36.51;98955.63;4965544;28;20441;-72
2021/07/02 07:32:53;;;;;;;4.80;4.30;;;;;;;28.23;37.54;98960.81;4965666;28;20400;-72
2021/07/02 07:35:22;;;;;;;5.22;4.18;;;;;;;29.49;36.19;98958.31;4965474;28;20039;-73
2021/07/02 07:37:52;;;;;;;7.05;4.20;;;;;;;29.50;34.75;98959.19;4965299;28;20058;-72
2021/07/02 07:40:18;;;;;;;6.75;4.05;;;;;;;25.48;42.00;98967.41;4965653;28;20043;-72
2021/07/02 07:42:44;;;;;;;6.40;4.10;;;;;;;28.02;37.81;98957.38;4959309;28;20130;-72
2021/07/02 07:45:09;;;;;;;5.65;4.13;;;;;;;25.89;42.12;98953.63;4959301;28;20540;-72
2021/07/02 07:47:35;;;;;;;5.68;4.28;;;;;;;23.34;45.02;98963.22;4965202;28;20042;-72
2021/07/02 07:50:06;;;;;;;7.95;4.03;;;;;;;24.48;43.36;98961.53;4965339;28;20089;-72
2021/07/02 07:52:54;;;;;;;4.32;3.88;;;;;;;23.78;44.21;98955.88;4965147;28;20031;-72
2021/07/02 07:55:20;;;;;;;5.07;3.38;;;;;;;22.16;46.68;98964.75;4964681;28;20038;-72
2021/07/02 07:57:46;;;;;;;5.60;4.15;;;;;;;21.00;50.19;98974.28;4958987;28;20039;-72
2021/07/02 08:00:11;;;;;;;6.32;4.18;;;;;;;20.64;51.46;98967.53;4959050;28;20077;-72
2021/07/02 08:02:37;;;;;;;4.13;3.72;;;;;;;22.28;47.24;98963.94;4963981;28;20030;-72
2021/07/02 08:05:03;;;;;;;6.60;4.88;;;;;;;22.33;47.03;98964.50;4964849;28;20027;-72
2021/07/02 08:07:35;;;;;;;6.07;3.88;;;;;;;21.54;49.94;98958.84;4961086;28;20033;-72
2021/07/02 08:10:01;;;;;;;6.53;4.47;;;;;;;20.66;51.73;98970.94;4958952;28;20026;-72
2021/07/02 08:12:27;;;;;;;6.90;3.83;;;;;;;20.36;53.23;98972.63;4965007;28;20045;-72
2021/07/02 08:14:52;;;;;;;5.78;3.85;;;;;;;21.97;49.25;98972.06;4963511;28;20026;-71
2021/07/02 08:17:17;;;;;;;4.38;3.50;;;;;;;24.55;43.41;98964.56;4963841;28;20073;-72
2021/07/02 08:19:43;;;;;;;5.47;3.30;;;;;;;26.83;38.34;98963.78;4964864;28;20027;-72
2021/07/02 08:22:08;;;;;;;5.57;3.30;;;;;;;26.15;39.90;98968.34;4964891;28;20562;-72
2021/07/02 08:24:33;;;;;;;6.07;3.28;;;;;;;27.16;36.74;98975.31;4965010;28;20146;-72
2021/07/02 08:27:05;;;;;;;4.35;2.80;;;;;;;26.05;38.15;98967.38;4959982;28;20061;-72
2021/07/02 08:29:30;;;;;;;10.85;3.10;;;;;;;24.64;40.24;98978.97;4964693;28;20034;-72
2021/07/02 08:31:56;;;;;;;7.05;3.65;;;;;;;24.25;43.31;98981.69;4964641;28;20030;-72
2021/07/02 08:34:22;;;;;;;11.00;3.60;;;;;;;24.91;39.98;98973.47;4962286;28;20058;-72
2021/07/02 08:36:47;;;;;;;4.93;3.25;;;;;;;26.50;38.46;98974.53;4960095;28;20470;-72
2021/07/02 08:39:13;;;;;;;3.15;2.85;;;;;;;27.15;37.03;98978.94;4958671;28;20035;-72
2021/07/02 08:41:39;;;;;;;3.40;3.10;;;;;;;27.00;36.49;98981.03;4958739;28;20117;-72
2021/07/02 08:44:04;;;;;;;3.55;3.25;;;;;;;25.83;37.51;98978.84;4958686;28;20111;-72
2021/07/02 08:46:30;;;;;;;6.20;3.28;;;;;;;27.23;35.44;98981.84;4961026;28;20030;-70
2021/07/02 08:48:56;;;;;;;5.78;3.25;;;;;;;28.02;34.61;98973.38;4964933;28;20031;-70
2021/07/02 08:51:24;;;;;;;6.75;3.08;;;;;;;27.83;33.08;98979.44;4958469;28;20026;-70
2021/07/02 08:53:49;;;;;;;5.85;3.70;;;;;;;27.68;33.27;98981.56;4964233;28;20093;-70
2021/07/02 08:56:18;;;;;;;4.72;3.58;;;;;;;28.26;31.73;98981.88;4964483;28;20456;-70
2021/07/02 08:58:43;;;;;;;3.55;3.25;;;;;;;27.59;32.58;98975.22;4964456;28;20029;-70
2021/07/02 09:01:08;;;;;;;3.45;3.15;;;;;;;28.16;31.75;98983.69;4964357;28;20042;-70
2021/07/02 09:03:38;;;;;;;4.85;3.35;;;;;;;27.46;34.13;98984.34;4964538;28;20043;-70
2021/07/02 09:06:13;;;;;;;5.18;3.20;;;;;;;27.87;32.49;98991.53;4961926;28;20788;-70
2021/07/02 09:08:40;;;;;;;3.60;3.30;;;;;;;28.00;31.25;98988.66;4963472;28;20066;-70
2021/07/02 09:11:25;;;;;;;4.60;3.50;;;;;;;28.87;30.55;98991.63;4958516;28;20112;-70
2021/07/02 09:13:50;;;;;;;4.32;2.90;;;;;;;28.25;30.80;98996.19;4966735;28;20158;-70
2021/07/02 09:16:36;;;;;;;5.13;3.65;;;;;;;30.21;28.92;98984.47;4961670;28;20122;-70
2021/07/02 09:19:26;;;;;;;4.57;3.50;;;;;;;28.25;32.74;98990.88;4968096;28;20035;-70
2021/07/02 09:21:51;;;;;;;4.75;3.65;;;;;;;27.39;34.28;98992.88;4967856;28;20038;-69
2021/07/02 09:24:43;;;;;;;5.95;4.00;;;;;;;28.69;32.92;98994.13;4961440;28;20027;-70
2021/07/02 09:27:29;;;;;;;4.07;3.67;;;;;;;30.27;30.49;98983.06;4967610;28;20089;-70
2021/07/02 09:30:11;;;;;;;4.32;3.10;;;;;;;30.52;27.62;98986.03;4961638;28;20031;-70
2021/07/02 09:32:44;;;;;;;3.72;3.00;;;;;;;31.63;27.09;98976.75;4961304;28;20040;-70
2021/07/02 09:35:12;;;;;;;3.75;2.80;;;;;;;29.87;29.49;98985.97;4967424;28;20037;-70
2021/07/02 09:37:41;;;;;;;3.63;3.25;;;;;;;29.27;31.11;98986.19;4962121;28;20517;-70
2021/07/02 09:40:11;;;;;;;4.68;3.25;;;;;;;28.68;31.79;98977.28;4967487;28;20019;-70
2021/07/02 09:42:37;;;;;;;4.20;3.78;;;;;;;26.51;36.67;98987.69;4967518;28;20153;-70
2021/07/02 09:45:17;;;;;;;5.80;4.40;;;;;;;25.12;37.23;98995.75;4961074;28;20403;-70
2021/07/02 09:47:45;;;;;;;6.50;3.88;;;;;;;23.96;40.17;98996.97;4959828;28;20396;-70
2021/07/02 09:50:21;;;;;;;5.53;3.60;;;;;;;25.25;37.51;98993.03;4961267;28;20619;-69
2021/07/02 09:52:48;;;;;;;5.68;4.07;;;;;;;27.35;34.05;98995.91;4966078;28;20491;-70
2021/07/02 09:55:18;;;;;;;5.72;3.40;;;;;;;27.82;33.43;98983.94;4967100;28;20039;-70
2021/07/02 09:57:43;;;;;;;6.70;4.28;;;;;;;28.17;34.10;98993.34;4957463;28;21394;-70
2021/07/02 10:00:14;;;;;;;6.70;3.70;;;;;;;25.99;38.08;98999.75;4963936;28;20033;-69
2021/07/02 10:02:55;;;;;;;7.43;3.80;;;;;;;27.27;35.45;98993.03;4965914;28;20027;-69
2021/07/02 10:05:21;;;;;;;3.90;3.60;;;;;;;28.30;31.92;98993.13;4966978;28;20399;-70
2021/07/02 10:07:55;;;;;;;7.63;4.13;;;;;;;29.23;31.30;98989.28;4966219;28;20025;-70
2021/07/02 10:10:21;;;;;;;8.75;3.70;;;;;;;28.01;32.54;98993.00;4960813;28;20027;-70
2021/07/02 10:12:47;;;;;;;6.85;3.60;;;;;;;29.38;31.30;99002.06;4966085;28;20027;-72
2021/07/02 10:15:12;;;;;;;3.35;3.05;;;;;;;27.82;32.63;98999.91;4964755;28;20098;-72
2021/07/02 10:17:38;;;;;;;4.90;3.63;;;;;;;28.06;30.45;99001.44;4966673;28;20038;-70
2021/07/02 10:20:04;;;;;;;5.68;4.93;;;;;;;28.35;31.79;98996.28;4963649;28;20042;-71
2021/07/02 10:22:30;;;;;;;5.18;2.83;;;;;;;28.45;29.84;98990.97;4962696;28;20547;-71
2021/07/02 10:24:56;;;;;;;6.57;3.08;;;;;;;25.59;34.31;98992.19;4960788;28;20042;-70
2021/07/02 10:27:21;;;;;;;3.67;3.30;;;;;;;26.36;34.43;98992.38;4965276;28;20039;-71
2021/07/02 10:29:47;;;;;;;5.53;3.67;;;;;;;28.15;31.37;98990.81;4966735;28;20042;-70
2021/07/02 10:32:14;;;;;;;7.90;3.50;;;;;;;28.79;30.16;98989.63;4966788;28;20038;-70
2021/07/02 10:34:40;;;;;;;5.90;3.72;;;;;;;28.59;30.89;98985.25;5013391;23;20042;-76
2021/07/02 10:37:06;;;;;;;5.93;4.00;;;;;;;27.92;32.23;98984.81;4980034;28;20052;-76
2021/07/02 10:39:35;;;;;;;3.67;3.38;;;;;;;28.87;29.72;98986.28;4980086;28;20038;-76
2021/07/02 10:42:03;;;;;;;;;;;;;;;27.56;32.60;98993.25;4981016;28;20029;-76
2021/07/02 10:44:29;;;;;;;3.23;2.80;;;;;;;26.91;33.00;98993.28;4988555;28;19917;-76
2021/07/02 10:46:57;;;;;;;5.20;4.05;;;;;;;27.84;31.99;98987.28;4999227;28;20506;-76
2021/07/02 10:49:37;;;;;;;4.77;3.90;;;;;;;29.32;30.52;98991.09;4998485;28;20057;-76
2021/07/02 10:52:23;;;;;;;4.05;3.40;;;;;;;28.51;29.58;98999.25;4999157;28;20030;-76
2021/07/02 10:54:50;;;;;;;5.55;3.38;;;;;;;28.41;31.42;98991.22;4999000;28;20030;-76
2021/07/02 10:57:21;;;;;;;6.18;3.15;;;;;;;27.83;32.26;98992.75;4999095;28;21460;-76
2021/07/02 10:59:49;;;;;;;4.53;3.58;;;;;;;29.69;29.00;98981.41;4999155;28;20394;-76
2021/07/02 11:02:22;;;;;;;4.70;3.38;;;;;;;28.52;31.94;99000.09;4999217;28;20030;-76
2021/07/02 11:04:49;;;;;;;4.90;3.42;;;;;;;29.68;29.23;98992.19;4998994;28;20041;-76
2021/07/02 11:07:14;;;;;;;5.93;5.28;;;;;;;30.82;27.49;98988.41;4997442;28;20502;-77
2021/07/02 11:09:49;;;;;;;6.43;3.95;;;;;;;29.47;28.88;98984.34;4998769;28;20157;-76
2021/07/02 11:12:16;;;;;;;3.95;3.10;;;;;;;29.62;29.78;98993.63;4992942;28;20398;-76
2021/07/02 11:15:13;;;;;;;4.43;3.53;;;;;;;28.84;29.06;98994.56;4998757;28;20076;-75
2021/07/02 11:17:46;;;;;;;5.28;3.05;;;;;;;29.92;28.23;98984.53;4999243;28;20034;-76
2021/07/02 11:20:18;;;;;;;5.50;3.58;;;;;;;29.17;28.22;98990.69;4998916;28;20030;-76
2021/07/02 11:23:01;;;;;;;4.47;3.35;;;;;;;29.04;29.21;98992.78;4998207;28;20030;-76
2021/07/02 11:26:04;;;;;;;6.47;3.50;;;;;;;29.80;28.84;98996.41;4997511;28;20660;-76
2021/07/02 11:28:50;;;;;;;3.70;3.40;;;;;;;31.18;26.44;98988.41;4998852;28;21005;-76
2021/07/02 11:31:18;;;;;;;7.15;3.42;;;;;;;29.62;28.09;98992.78;4998325;28;20030;-76
2021/07/02 11:33:44;;;;;;;4.70;3.58;;;;;;;29.37;28.92;98995.03;4997636;28;20030;-76
2021/07/02 11:36:12;;;;;;;4.93;3.38;;;;;;;28.27;29.77;98998.72;4998148;28;20399;-76
2021/07/02 11:39:03;;;;;;;9.15;6.53;;;;;;;28.02;30.28;98989.34;4997391;28;20451;-76
2021/07/02 11:41:32;;;;;;;5.00;3.60;;;;;;;28.29;29.09;98996.78;4998080;28;20046;-78
2021/07/02 11:44:00;;;;;;;5.40;3.72;;;;;;;27.89;30.07;98987.75;4998605;28;20029;-78
2021/07/02 11:46:25;;;;;;;5.43;3.65;;;;;;;28.63;30.02;98990.19;4998481;28;20391;-78
2021/07/02 11:48:55;;;;;;;6.25;3.50;;;;;;;27.68;31.17;98997.56;4998084;28;20026;-78
2021/07/02 11:51:29;;;;;;;3.85;3.47;;;;;;;28.36;28.69;98993.47;4998554;28;20038;-78
2021/07/02 11:53:57;;;;;;;5.30;3.55;;;;;;;28.77;27.77;98998.75;4998016;28;20029;-78
2021/07/02 11:56:34;;;;;;;6.97;3.37;;;;;;;27.04;29.85;98992.28;4997993;28;20124;-78
2021/07/02 11:59:03;;;;;;;6.53;3.83;;;;;;;27.33;29.97;98988.06;4998076;28;20299;-78
2021/07/02 12:01:41;;;;;;;5.25;3.88;;;;;;;26.39;32.28;98991.28;4998010;28;20395;-78
2021/07/02 12:04:09;;;;;;;3.85;3.45;;;;;;;25.63;32.12;98982.19;4997868;28;20042;-78
2021/07/02 12:06:41;;;;;;;6.07;5.47;;;;;;;25.57;34.44;98978.16;4998230;28;20395;-78
2021/07/02 12:09:09;;;;;;;9.43;4.63;;;;;;;25.21;33.30;98986.28;4998003;28;20034;-78
2021/07/02 12:11:40;;;;;;;4.03;3.60;;;;;;;25.11;36.79;98979.00;4998008;28;20029;-78
2021/07/02 12:14:10;;;;;;;4.35;3.83;;;;;;;23.28;35.88;98984.81;4997996;28;20036;-78
2021/07/02 12:16:38;;;;;;;8.10;4.13;;;;;;;24.58;35.44;98980.25;4997619;28;20507;-78
2021/07/02 12:19:05;;;;;;;5.18;4.00;;;;;;;23.81;36.28;98975.06;4997478;28;20038;-78
2021/07/02 12:21:31;;;;;;;4.50;3.47;;;;;;;24.16;36.55;98986.78;4997982;28;21235;-78
2021/07/02 12:24:00;;;;;;;6.25;3.97;;;;;;;24.47;36.61;98974.91;4997425;28;20386;-78
2021/07/02 12:26:28;;;;;;;4.13;3.67;;;;;;;23.68;37.17;98982.13;4997705;28;20053;-78
2021/07/02 12:28:59;;;;;;;4.93;4.43;;;;;;;22.73;37.78;98988.41;4997614;28;20277;-78
2021/07/02 12:31:26;;;;;;;7.88;4.30;;;;;;;23.53;39.51;98977.84;4997659;28;20083;-78
2021/07/02 12:33:53;;;;;;;5.47;4.25;;;;;;;24.33;37.43;98974.03;4997388;28;20040;-78
2021/07/02 12:36:18;;;;;;;6.88;3.45;;;;;;;24.50;36.37;98972.00;4997304;28;20033;-78
2021/07/02 12:39:10;;;;;;;5.75;3.17;;;;;;;24.74;35.14;98972.88;4997630;28;20033;-78
2021/07/02 12:41:44;;;;;;;6.72;3.70;;;;;;;23.62;36.33;98971.94;4997547;28;20026;-78
2021/07/02 12:44:17;;;;;;;7.57;3.70;;;;;;;24.22;38.25;98979.22;4997378;28;20022;-78
2021/07/02 12:46:43;;;;;;;8.88;4.43;;;;;;;23.88;38.79;98977.25;4997277;28;20030;-78
2021/07/02 12:49:30;;;;;;;6.00;4.10;;;;;;;23.97;37.62;98966.03;4996854;28;20168;-78
2021/07/02 12:54:47;;;;;;;5.72;4.13;;;;;;;23.92;35.40;98973.44;4997303;28;20038;-78
2021/07/02 12:57:37;;;;;;;8.15;3.67;;;;;;;23.85;36.83;98967.75;4997126;28;20033;-78
2021/07/02 13:00:09;;;;;;;5.78;4.35;;;;;;;23.24;36.62;98972.72;4997493;28;20033;-78
2021/07/02 13:02:38;;;;;;;6.25;4.03;;;;;;;22.91;38.90;98981.09;4991050;28;20503;-78
2021/07/02 13:05:03;;;;;;;4.82;4.18;;;;;;;22.86;38.28;98972.59;4997221;28;20109;-78
2021/07/02 13:07:45;;;;;;;6.40;4.00;;;;;;;23.03;39.03;98969.72;4998588;28;20026;-78
2021/07/02 13:10:12;;;;;;;5.25;4.10;;;;;;;22.94;40.64;98970.31;4997193;28;20479;-78
2021/07/02 13:12:38;;;;;;;4.28;3.85;;;;;;;24.00;37.25;98960.53;4997078;28;20565;-78
2021/07/02 13:15:08;;;;;;;6.50;3.95;;;;;;;24.60;35.94;98960.63;4997058;28;20053;-78
2021/07/02 13:17:45;;;;;;;8.93;3.63;;;;;;;24.01;37.95;98967.53;4996913;28;20056;-78
2021/07/02 13:20:12;;;;;;;5.40;4.00;;;;;;;24.21;38.00;98959.00;4995987;28;20388;-78
2021/07/02 13:22:39;;;;;;;5.63;4.07;;;;;;;23.74;38.49;98960.56;4997442;28;20028;-78
2021/07/02 13:25:11;;;;;;;4.78;3.50;;;;;;;24.27;35.63;98958.59;4996998;28;20034;-78
2021/07/02 13:27:38;;;;;;;4.03;3.63;;;;;;;24.07;37.11;98946.75;4995933;28;20573;-78
2021/07/02 13:30:10;;;;;;;5.55;4.05;;;;;;;23.91;38.25;98951.44;4996950;28;20038;-78
2021/07/02 13:32:38;;;;;;;12.63;4.47;;;;;;;22.62;37.64;98953.03;4996981;28;20487;-78
2021/07/02 13:35:22;;;;;;;6.57;4.60;;;;;;;24.03;36.42;98949.72;4996908;28;20053;-78
2021/07/02 13:37:55;;;;;;;4.18;3.78;;;;;;;23.93;37.97;98953.97;4996784;28;20042;-78
2021/07/02 13:40:32;;;;;;;4.20;3.80;;;;;;;24.13;35.69;98950.78;4997326;28;20427;-78
2021/07/02 13:43:05;;;;;;;7.70;3.70;;;;;;;24.23;37.08;98951.81;4996896;28;20026;-78
2021/07/02 13:45:31;;;;;;;3.83;3.50;;;;;;;24.06;37.05;98939.75;4997050;28;20034;-78
2021/07/02 13:48:06;;;;;;;6.28;4.07;;;;;;;23.64;38.62;98948.91;4996577;28;20033;-78
2021/07/02 13:50:31;;;;;;;4.97;3.70;;;;;;;22.99;37.35;98952.38;4995873;28;20030;-78
2021/07/02 13:52:57;;;;;;;4.45;3.80;;;;;;;23.77;37.25;98943.59;4996528;28;20030;-78
2021/07/02 13:55:22;;;;;;;4.28;3.88;;;;;;;24.11;37.28;98952.69;4996941;28;20387;-78
2021/07/02 13:57:47;;;;;;;4.38;3.58;;;;;;;24.37;36.74;98940.28;4996784;28;20514;-78
2021/07/02 14:00:13;;;;;;;5.00;4.50;;;;;;;22.92;36.51;98951.09;4998353;28;20057;-79
2021/07/02 14:02:38;;;;;;;4.47;3.78;;;;;;;23.57;38.50;98937.03;5000512;28;20045;-78
2021/07/02 14:05:04;;;;;;;5.30;4.30;;;;;;;24.23;36.93;98949.19;5000195;28;20022;-78
2021/07/02 14:07:29;;;;;;;4.43;3.85;;;;;;;24.46;37.11;98941.38;5000154;28;20029;-78
2021/07/02 14:09:55;;;;;;;4.82;3.90;;;;;;;24.66;36.97;98948.75;4997648;28;20505;-78
2021/07/02 14:12:20;;;;;;;4.63;3.40;;;;;;;24.39;36.91;98945.44;5000111;28;20049;-78
2021/07/02 14:14:45;;;;;;;10.20;7.68;;;;;;;24.61;37.32;98948.22;4999803;28;20026;-78
2021/07/02 14:17:11;;;;;;;5.10;3.78;;;;;;;24.60;37.61;98954.47;4999712;28;20477;-78
2021/07/02 14:19:36;;;;;;;4.38;3.78;;;;;;;24.99;36.35;98945.41;4999861;28;20048;-78
2021/07/02 14:22:02;;;;;;;6.05;4.43;;;;;;;23.39;38.62;98954.13;4999828;28;20022;-78
2021/07/02 14:24:27;;;;;;;4.70;4.03;;;;;;;24.21;37.58;98956.38;4999589;28;20105;-78
2021/07/02 14:26:52;;;;;;;5.18;4.68;;;;;;;24.24;37.96;98958.81;4999923;28;20025;-78
2021/07/02 14:29:18;;;;;;;3.83;3.50;;;;;;;24.32;37.70;98956.47;4999587;28;20076;-78
2021/07/02 14:31:43;;;;;;;5.97;3.42;;;;;;;24.28;36.42;98964.75;4999761;28;20069;-78
2021/07/02 14:34:09;;;;;;;5.47;3.88;;;;;;;24.10;38.43;98959.78;4999477;28;20509;-78
2021/07/02 14:36:34;;;;;;;5.65;4.55;;;;;;;23.36;39.56;98964.94;5000019;28;20526;-79
2021/07/02 14:39:00;;;;;;;5.22;3.90;;;;;;;23.30;39.32;98977.59;4999768;28;20040;-78
2021/07/02 14:41:25;;;;;;;6.30;4.40;;;;;;;22.18;41.75;98970.75;4999831;28;21229;-76
2021/07/02 14:43:51;;;;;;;12.15;5.60;;;;;;;21.96;42.82;98967.75;4999924;28;20762;-77
2021/07/02 14:46:16;;;;;;;11.45;4.28;;;;;;;22.71;43.04;98971.78;4998235;28;20479;-79
2021/07/02 14:48:42;;;;;;;7.15;4.60;;;;;;;22.78;42.43;98975.75;4999547;28;20025;-72
2021/07/02 14:51:08;;;;;;;4.80;3.90;;;;;;;23.19;41.08;98969.53;4999160;28;20025;-72
2021/07/02 14:53:34;;;;;;;10.13;4.18;;;;;;;23.20;42.53;98965.94;4998408;28;20483;-72
2021/07/02 14:56:00;;;;;;;8.90;4.80;;;;;;;23.40;41.69;98972.53;4999250;28;20034;-72
2021/07/02 14:58:25;;;;;;;4.85;4.07;;;;;;;23.42;42.92;98977.75;4999034;28;20032;-73
2021/07/02 15:00:50;;;;;;;5.15;4.03;;;;;;;23.73;40.68;98961.50;4999040;28;20061;-72
2021/07/02 15:03:16;;;;;;;9.80;5.68;;;;;;;24.08;39.16;98964.34;4999043;28;20077;-73
2021/07/02 15:05:41;;;;;;;4.63;3.85;;;;;;;24.77;37.96;98961.22;4998900;28;20052;-79
2021/07/02 15:08:07;;;;;;;7.38;4.20;;;;;;;25.13;36.57;98952.34;4998817;28;20054;-78
2021/07/02 15:10:32;;;;;;;5.80;4.30;;;;;;;24.98;36.73;98958.78;4998685;28;20034;-74
2021/07/02 15:12:59;;;;;;;8.55;4.22;;;;;;;24.97;38.51;98954.44;4999082;28;20025;-73
2021/07/02 15:15:25;;;;;;;5.28;4.13;;;;;;;25.08;38.40;98938.59;4998870;28;20053;-74
2021/07/02 15:17:50;;;;;;;4.65;3.83;;;;;;;25.77;36.37;98947.50;4997551;28;20022;-75
2021/07/02 15:20:21;;;;;;;4.60;4.20;;;;;;;24.93;39.55;98950.31;4998681;28;20041;-75
2021/07/02 15:22:55;;;;;;;4.63;4.15;;;;;;;24.86;39.48;98952.59;4998700;28;20030;-75
2021/07/02 15:25:21;;;;;;;7.10;5.30;;;;;;;25.07;39.20;98944.88;4998887;28;20449;-75
2021/07/02 15:27:46;;;;;;;6.35;5.47;;;;;;;25.20;38.25;98948.28;4997541;28;20030;-75
2021/07/02 15:30:49;;;;;;;4.63;4.15;;;;;;;23.39;40.79;98959.44;4998417;28;20034;-75
2021/07/02 15:33:15;;;;;;;4.75;4.25;;;;;;;23.36;41.22;98949.06;4998483;28;20061;-75
2021/07/02 15:35:40;;;;;;;8.50;4.40;;;;;;;23.38;41.04;98941.88;4998349;28;20125;-72
2021/07/02 15:38:05;;;;;;;4.88;4.38;;;;;;;22.57;41.80;98948.06;4998416;28;20052;-72
2021/07/02 15:40:31;;;;;;;4.72;4.03;;;;;;;22.75;43.60;98938.94;4998451;28;20132;-79
2021/07/02 15:42:59;;;;;;;6.53;3.88;;;;;;;23.00;41.14;98940.00;4998687;28;20037;-71
2021/07/02 15:45:24;;;;;;;4.47;4.03;;;;;;;23.31;41.17;98937.00;4998124;28;20030;-71
2021/07/02 15:47:50;;;;;;;5.03;4.53;;;;;;;23.52;40.66;98929.41;4998223;28;20036;-71
2021/07/02 15:50:15;;;;;;;5.43;3.85;;;;;;;24.21;39.03;98931.69;4998247;28;20101;-71
2021/07/02 15:52:40;;;;;;;4.95;3.97;;;;;;;24.37;38.83;98927.03;4998026;28;20112;-71
2021/07/02 15:55:07;;;;;;;5.07;3.70;;;;;;;24.03;37.80;98929.41;4998020;28;20502;-71